Flight Track Log - Related Links

Times and Time Zones

All times are in EST time to prevent confusion due to time zone crossing. See the N761SP flight status page for this flight to view local times or setup timezone preferences in your user account.

Time Position Orientation Groundspeed Altitude Reporting Facility
EST Latitude Longitude Course Direction KTS MPH feet Rate Location/Type
Sat 03:25:51 PM 46.6512 -92.1237 214° Southwest  Level FlightAware Approximate
Sat 03:33:51 PM 46.3431 -92.3554 259° West  Level FlightAware Approximate
Sat 03:36:05 PM 46.3328 -92.4350 207° Southwest 152 175 5,900  Level Minneapolis Center
Sat 03:37:05 PM 46.2956 -92.4625 206° Southwest 152 175 5,900  Level Minneapolis Center
Sat 03:38:05 PM 46.2561 -92.4903 205° Southwest 152 175 5,900  Level Minneapolis Center
Sat 03:39:04 PM 46.2189 -92.5150 210° Southwest 152 175 5,900  Level Minneapolis Center
Sat 03:40:05 PM 46.1817 -92.5456 206° Southwest 152 175 5,900  Level Minneapolis Center
Sat 03:41:04 PM 46.1422 -92.5733 204° Southwest 157 181 5,900  Level Minneapolis Center
Sat 03:42:04 PM 46.1050 -92.5978 207° Southwest 157 181 5,900  Level Minneapolis Center
Sat 03:43:04 PM 46.0678 -92.6253 206° Southwest 157 181 5,900  Level Minneapolis Center
Sat 03:44:04 PM 46.0283 -92.6528 207° Southwest 157 181 5,900  Level Minneapolis Center
Sat 03:45:05 PM 45.9950 -92.6772 203° Southwest 157 181 5,900  Level Minneapolis Center
Sat 03:46:05 PM 45.9558 -92.7014 210° Southwest 157 181 5,900 50 Level Minneapolis Center
Sat 03:47:04 PM 45.9225 -92.7289 202° Southwest 152 175 6,000 50 Climbing Minneapolis Center
Sat 03:48:05 PM 45.8811 -92.7533 204° Southwest 152 175 6,000  Level Minneapolis Center
Sat 03:49:05 PM 45.8436 -92.7775 207° Southwest 152 175 6,000  Level Minneapolis Center
Sat 03:50:05 PM 45.8064 -92.8047 207° Southwest 152 175 6,000  Level Minneapolis Center
Sat 03:51:04 PM 45.7689 -92.8319 203° Southwest 157 181 6,000 -81 Level Minneapolis Center
Sat 03:51:19 PM 45.7581 -92.8386 202° Southwest 149 171 5,900 -171 Descending FAA TRACON SMA TRACON (SMA)
Sat 03:51:39 PM 45.7433 -92.8472 215° Southwest 148 170 5,900  Level FAA TRACON SMA TRACON (SMA)
Sat 03:51:59 PM 45.7322 -92.8583 198° South 153 176 5,900 -150 Level FAA TRACON SMA TRACON (SMA)
Sat 03:52:19 PM 45.7200 -92.8639 203° Southwest 152 175 5,800 -450 Descending FAA TRACON SMA TRACON (SMA)
Sat 03:52:39 PM 45.7075 -92.8714 209° Southwest 157 181 5,600 -600 Descending FAA TRACON SMA TRACON (SMA)
Sat 03:52:59 PM 45.6919 -92.8839 207° Southwest 166 191 5,400 -450 Descending FAA TRACON SMA TRACON (SMA)
Sat 03:53:19 PM 45.6789 -92.8933 197° South 168 193 5,300 -439 Descending FAA TRACON SMA TRACON (SMA)
Sat 03:53:40 PM 45.6625 -92.9006 212° Southwest 163 188 5,100 -450 Descending FAA TRACON SMA TRACON (SMA)
Sat 03:53:59 PM 45.6503 -92.9114 200° South 166 191 5,000 -308 Descending FAA TRACON SMA TRACON (SMA)
Sat 03:54:19 PM 45.6369 -92.9183 209° Southwest 166 191 4,900 -146 Descending FAA TRACON SMA TRACON (SMA)
Sat 03:54:40 PM 45.6217 -92.9303 201° Southwest 164 189 4,900  Level FAA TRACON SMA TRACON (SMA)
Sat 03:54:59 PM 45.6092 -92.9372 210° Southwest 158 182 4,900  Level FAA TRACON SMA TRACON (SMA)
Sat 03:55:19 PM 45.5972 -92.9469 207° Southwest 157 181 4,900  Level FAA TRACON SMA TRACON (SMA)
Sat 03:55:39 PM 45.5828 -92.9575 200° South 156 180 4,900  Level FAA TRACON SMA TRACON (SMA)
Sat 03:55:59 PM 45.5706 -92.9639 205° Southwest 153 176 4,900  Level FAA TRACON SMA TRACON (SMA)
Sat 03:56:20 PM 45.5586 -92.9719 206° Southwest 154 177 4,900  Level FAA TRACON SMA TRACON (SMA)
Sat 03:56:39 PM 45.5433 -92.9825 204° Southwest 155 178 4,900  Level FAA TRACON SMA TRACON (SMA)
Sat 03:56:59 PM 45.5317 -92.9900 203° Southwest 154 177 4,900  Level FAA TRACON SMA TRACON (SMA)
Sat 03:57:19 PM 45.5197 -92.9972 204° Southwest 151 174 4,900  Level FAA TRACON SMA TRACON (SMA)
Sat 03:57:39 PM 45.5050 -93.0067 208° Southwest 151 174 4,900  Level FAA TRACON SMA TRACON (SMA)
Sat 03:58:00 PM 45.4939 -93.0153 210° Southwest 151 174 4,900  Level FAA TRACON SMA TRACON (SMA)
Sat 03:58:19 PM 45.4819 -93.0250 214° Southwest 155 178 4,900  Level FAA TRACON SMA TRACON (SMA)
Sat 03:58:39 PM 45.4692 -93.0375 226° Southwest 151 174 4,900  Level FAA TRACON SMA TRACON (SMA)
Sat 03:58:59 PM 45.4603 -93.0508 217° Southwest 151 174 4,900  Level FAA TRACON SMA TRACON (SMA)
Sat 03:59:19 PM 45.4506 -93.0614 227° Southwest 147 169 4,900 -146 Level FAA TRACON SMA TRACON (SMA)
Sat 03:59:40 PM 45.4392 -93.0786 222° Southwest 153 176 4,800 -150 Descending FAA TRACON SMA TRACON (SMA)
Sat 03:59:59 PM 45.4297 -93.0908 222° Southwest 152 175 4,800 154 Level FAA TRACON SMA TRACON (SMA)
Sat 04:00:19 PM 45.4206 -93.1028 226° Southwest 151 174 4,900 150 Climbing FAA TRACON SMA TRACON (SMA)
Sat 04:00:39 PM 45.4092 -93.1194 219° Southwest 152 175 4,900  Level FAA TRACON SMA TRACON (SMA)
Sat 04:00:59 PM 45.3997 -93.1303 227° Southwest 148 170 4,900  Level FAA TRACON SMA TRACON (SMA)
Sat 04:01:20 PM 45.3906 -93.1444 224° Southwest 152 175 4,900  Level FAA TRACON SMA TRACON (SMA)
Sat 04:01:39 PM 45.3789 -93.1603 221° Southwest 152 175 4,900  Level FAA TRACON SMA TRACON (SMA)
Sat 04:01:59 PM 45.3694 -93.1719 228° Southwest 149 171 4,900 -150 Level FAA TRACON SMA TRACON (SMA)
Sat 04:02:19 PM 45.3606 -93.1858 225° Southwest 152 175 4,800  Descending FAA TRACON SMA TRACON (SMA)
Sat 04:02:39 PM 45.3489 -93.2025 223° Southwest 153 176 4,900 150 Climbing FAA TRACON SMA TRACON (SMA)
Sat 04:02:59 PM 45.3397 -93.2147 225° Southwest 150 173 4,900  Level FAA TRACON SMA TRACON (SMA)
Sat 04:03:19 PM 45.3306 -93.2278 225° Southwest 151 174 4,900  Level FAA TRACON SMA TRACON (SMA)
Sat 04:03:39 PM 45.3194 -93.2433 224° Southwest 151 174 4,900  Level FAA TRACON SMA TRACON (SMA)
Sat 04:03:59 PM 45.3103 -93.2561 224° Southwest 149 171 4,900  Level FAA TRACON SMA TRACON (SMA)
Sat 04:04:19 PM 45.3011 -93.2689 225° Southwest 149 171 4,900  Level FAA TRACON SMA TRACON (SMA)
Sat 04:04:39 PM 45.2897 -93.2853 225° Southwest 151 174 4,900  Level FAA TRACON SMA TRACON (SMA)
Sat 04:04:59 PM 45.2808 -93.2978 224° Southwest 149 171 4,900  Level FAA TRACON SMA TRACON (SMA)
Sat 04:05:19 PM 45.2717 -93.3103 224° Southwest 151 174 4,900 -146 Level FAA TRACON SMA TRACON (SMA)
Sat 04:05:40 PM 45.2600 -93.3261 226° Southwest 152 175 4,800 -300 Descending FAA TRACON SMA TRACON (SMA)
Sat 04:05:59 PM 45.2506 -93.3400 226° Southwest 158 182 4,700 -750 Descending FAA TRACON SMA TRACON (SMA)
Sat 04:06:20 PM 45.2381 -93.3583 226° Southwest 164 189 4,300 -750 Descending FAA TRACON SMA TRACON (SMA)
Sat 04:06:39 PM 45.2283 -93.3728 226° Southwest 165 190 4,200 -308 Descending FAA TRACON SMA TRACON (SMA)
Sat 04:06:59 PM 45.2189 -93.3867 229° Southwest 163 188 4,100 -293 Descending FAA TRACON SMA TRACON (SMA)
Sat 04:07:20 PM 45.2100 -93.4014 228° Southwest 160 184 4,000 -300 Descending FAA TRACON SMA TRACON (SMA)
Sat 04:07:39 PM 45.1994 -93.4178 225° Southwest 152 175 3,900 -150 Descending FAA TRACON SMA TRACON (SMA)
Sat 04:08:00 PM 45.1903 -93.4308 228° Southwest 149 171 3,900  Level FAA TRACON SMA TRACON (SMA)
Sat 04:08:19 PM 45.1822 -93.4433 226° Southwest 145 167 3,900 154 Level FAA TRACON SMA TRACON (SMA)
Sat 04:08:39 PM 45.1717 -93.4589 227° Southwest 141 162 4,000  Climbing FAA TRACON SMA TRACON (SMA)
Sat 04:09:00 PM 45.1639 -93.4706 227° Southwest 136 157 3,900  Descending FAA TRACON SMA TRACON (SMA)
Sat 04:09:19 PM 45.1542 -93.4856 228° Southwest 137 158 4,000  Climbing FAA TRACON SMA TRACON (SMA)
Sat 04:09:39 PM 45.1458 -93.4986 228° Southwest 139 160 3,900 -146 Descending FAA TRACON SMA TRACON (SMA)
Sat 04:10:00 PM 45.1383 -93.5103 227° Southwest 138 159 3,900 146 Level FAA TRACON SMA TRACON (SMA)
Sat 04:10:20 PM 45.1283 -93.5256 230° Southwest 137 158 4,000 154 Climbing FAA TRACON SMA TRACON (SMA)
Sat 04:10:39 PM 45.1211 -93.5378 226° Southwest 134 154 4,000  Level FAA TRACON SMA TRACON (SMA)
Sat 04:11:00 PM 45.1131 -93.5494 227° Southwest 135 155 4,000  Level FAA TRACON SMA TRACON (SMA)
Sat 04:11:19 PM 45.1028 -93.5650 228° Southwest 138 159 4,000  Level FAA TRACON SMA TRACON (SMA)
Sat 04:11:40 PM 45.0956 -93.5764 225° Southwest 135 155 4,000  Level FAA TRACON SMA TRACON (SMA)
Sat 04:12:00 PM 45.0867 -93.5889 215° Southwest 138 159 4,000  Level FAA TRACON SMA TRACON (SMA)
Sat 04:12:20 PM 45.0747 -93.6008 214° Southwest 138 159 4,000 -150 Level FAA TRACON SMA TRACON (SMA)
Sat 04:12:40 PM 45.0653 -93.6097 214° Southwest 137 158 3,900  Descending FAA TRACON SMA TRACON (SMA)
Sat 04:12:59 PM 45.0550 -93.6194 215° Southwest 140 161 4,000  Climbing FAA TRACON SMA TRACON (SMA)
Sat 04:13:20 PM 45.0433 -93.6311 214° Southwest 138 159 3,900 -450 Descending FAA TRACON SMA TRACON (SMA)
Sat 04:13:39 PM 45.0331 -93.6408 217° Southwest 141 162 3,700 -615 Descending FAA TRACON SMA TRACON (SMA)
Sat 04:13:59 PM 45.0225 -93.6519 197° South 150 173 3,500 -439 Descending FAA TRACON SMA TRACON (SMA)
Sat 04:14:20 PM 45.0069 -93.6586 187° South 155 178 3,400 -585 Descending FAA TRACON SMA TRACON (SMA)
Sat 04:14:40 PM 44.9936 -93.6608 189° South 154 177 3,100 -615 Descending FAA TRACON SMA TRACON (SMA)
Sat 04:14:59 PM 44.9814 -93.6636 191° South 151 174 3,000 -150 Descending FAA TRACON SMA TRACON (SMA)
Sat 04:15:20 PM 44.9661 -93.6678 188° South 148 170 3,000 -146 Level FAA TRACON SMA TRACON (SMA)
Sat 04:15:40 PM 44.9539 -93.6703 192° South 142 163 2,900 -154 Descending FAA TRACON SMA TRACON (SMA)
Sat 04:15:59 PM 44.9439 -93.6733 191° South 130 150 2,900  Level FAA TRACON SMA TRACON (SMA)
Sat 04:16:20 PM 44.9306 -93.6769 188° South 126 145 2,900 146 Level FAA TRACON SMA TRACON (SMA)
Sat 04:16:40 PM 44.9206 -93.6789 190° South 120 138 3,000  Climbing FAA TRACON SMA TRACON (SMA)
Sat 04:17:00 PM 44.9100 -93.6814 189° South 122 140 2,900 -146 Descending FAA TRACON SMA TRACON (SMA)
Sat 04:17:21 PM 44.8969 -93.6844 191° South 124 143 2,900 -150 Level FAA TRACON SMA TRACON (SMA)
Sat 04:17:40 PM 44.8861 -93.6875 190° South 128 147 2,800 -308 Descending FAA TRACON SMA TRACON (SMA)
Sat 04:18:00 PM 44.8744 -93.6903 155° Southeast 132 152 2,700 -450 Descending FAA TRACON SMA TRACON (SMA)
Sat 04:18:20 PM 44.8617 -93.6819 116° Southeast 141 162 2,500 -293 Descending FAA TRACON SMA TRACON (SMA)
Sat 04:18:41 PM 44.8569 -93.6681 105° East 139 160 2,500  Level FAA TRACON SMA TRACON (SMA)
Sat 04:19:01 PM 44.8533 -93.6492 105° East 130 150 2,500  Level FAA TRACON SMA TRACON (SMA)
Sat 04:19:20 PM 44.8506 -93.6342 95° East 129 148 2,500  Level FAA TRACON SMA TRACON (SMA)
Sat 04:19:40 PM 44.8497 -93.6203 103° East 121 139 2,500  Level FAA TRACON SMA TRACON (SMA)
Sat 04:19:59 PM 44.8475 -93.6069 99° East 115 132 2,500  Level FAA TRACON SMA TRACON (SMA)
Sat 04:20:20 PM 44.8456 -93.5906 99° East 110 127 2,500  Level FAA TRACON SMA TRACON (SMA)

Login

Don't have an account? Register now (free) for customized features, flight alerts, and more!